createdAt,value
2023-05-20T00:01:07.832Z,55.70
2023-05-20T00:03:35.781Z,55.40
2023-05-20T00:06:03.693Z,56.10
2023-05-20T00:08:31.560Z,55.80
2023-05-20T00:10:59.630Z,56.00
2023-05-20T00:13:27.709Z,56.30
2023-05-20T00:15:56.927Z,56.20
2023-05-20T00:18:24.801Z,56.60
2023-05-20T00:20:54.086Z,56.60
2023-05-20T00:23:22.033Z,56.70
2023-05-20T00:25:50.731Z,56.80
2023-05-20T00:28:19.782Z,57.10
2023-05-20T00:30:47.938Z,56.90
2023-05-20T00:33:17.435Z,57.10
2023-05-20T00:35:45.391Z,57.10
2023-05-20T00:38:13.278Z,57.60
2023-05-20T00:40:41.154Z,57.30
2023-05-20T00:43:09.156Z,57.50
2023-05-20T00:45:38.607Z,57.70
2023-05-20T00:48:07.588Z,57.90
2023-05-20T00:50:36.887Z,57.80
2023-05-20T00:53:04.902Z,58.00
2023-05-20T00:55:33.428Z,58.00
2023-05-20T00:58:01.467Z,58.10
2023-05-20T01:00:29.349Z,58.00
2023-05-20T01:02:57.575Z,58.50
2023-05-20T01:05:25.552Z,58.40
2023-05-20T01:07:54.909Z,58.50
2023-05-20T01:10:25.060Z,58.60
2023-05-20T01:12:57.879Z,58.80
2023-05-20T01:15:28.430Z,59.10
2023-05-20T01:18:02.485Z,59.00
2023-05-20T01:20:32.373Z,59.30
2023-05-20T01:23:01.706Z,59.00
2023-05-20T01:25:29.911Z,59.20
2023-05-20T01:27:58.761Z,59.30
2023-05-20T01:30:30.626Z,59.60
2023-05-20T01:33:03.323Z,59.50
2023-05-20T01:35:31.644Z,59.90
2023-05-20T01:38:01.344Z,59.80
2023-05-20T01:40:29.727Z,59.80
2023-05-20T01:42:58.627Z,60.10
2023-05-20T01:45:26.985Z,60.00
2023-05-20T01:47:55.067Z,60.10
2023-05-20T01:50:23.102Z,60.10
2023-05-20T01:52:51.142Z,60.20
2023-05-20T01:55:20.612Z,60.20
2023-05-20T01:57:48.619Z,60.60
2023-05-20T02:00:16.661Z,60.60
2023-05-20T02:02:44.698Z,61.40
2023-05-20T02:05:12.780Z,61.40
2023-05-20T02:07:40.653Z,61.30
2023-05-20T02:10:09.450Z,61.30
2023-05-20T02:12:38.901Z,61.50
2023-05-20T02:15:08.053Z,62.20
2023-05-20T02:17:36.043Z,61.50
2023-05-20T02:20:06.548Z,61.30
2023-05-20T02:22:34.468Z,61.40
2023-05-20T02:25:02.389Z,61.60
2023-05-20T02:27:30.246Z,61.60
2023-05-20T02:29:59.646Z,61.70
2023-05-20T02:32:28.789Z,62.00
2023-05-20T02:34:56.668Z,62.00
2023-05-20T02:37:24.576Z,62.00
2023-05-20T02:39:52.458Z,62.20
2023-05-20T02:42:20.647Z,62.10
2023-05-20T02:44:48.725Z,62.10
2023-05-20T02:47:18.050Z,62.20
2023-05-20T02:49:46.728Z,62.30
2023-05-20T02:52:16.261Z,62.40
2023-05-20T02:54:44.151Z,62.40
2023-05-20T02:57:12.058Z,62.50
2023-05-20T02:59:39.966Z,62.30
2023-05-20T03:02:07.888Z,62.40
2023-05-20T03:04:38.772Z,62.60
2023-05-20T03:07:09.015Z,62.90
2023-05-20T03:09:37.277Z,64.20
2023-05-20T03:12:05.464Z,64.10
2023-05-20T03:14:33.309Z,63.90
2023-05-20T03:17:01.120Z,63.90
2023-05-20T03:19:29.122Z,63.90
2023-05-20T03:21:58.940Z,63.80
2023-05-20T03:24:26.798Z,64.10
2023-05-20T03:26:54.830Z,63.80
2023-05-20T03:29:23.248Z,64.10
2023-05-20T03:31:51.248Z,64.10
2023-05-20T03:34:19.216Z,63.90
2023-05-20T03:36:47.824Z,64.10
2023-05-20T03:39:17.024Z,64.00
2023-05-20T03:41:45.458Z,64.20
2023-05-20T03:44:13.381Z,64.30
2023-05-20T03:46:41.270Z,66.30
2023-05-20T03:49:09.253Z,64.30
2023-05-20T03:51:37.073Z,64.60
2023-05-20T03:54:04.950Z,64.70
2023-05-20T03:56:34.273Z,64.80
2023-05-20T03:59:02.115Z,65.20
2023-05-20T04:01:29.997Z,65.00
2023-05-20T04:03:57.884Z,65.30
2023-05-20T04:06:26.543Z,65.40
2023-05-20T04:08:54.607Z,66.00
2023-05-20T04:11:22.454Z,66.20
2023-05-20T04:13:51.676Z,66.30
2023-05-20T04:16:20.013Z,66.50
2023-05-20T04:18:48.643Z,66.60
2023-05-20T04:21:16.778Z,66.70
2023-05-20T04:23:44.790Z,67.00
2023-05-20T04:26:12.835Z,67.00
2023-05-20T04:28:41.948Z,67.90
2023-05-20T04:31:11.515Z,67.30
2023-05-20T04:33:39.345Z,67.60
2023-05-20T04:36:09.305Z,67.50
2023-05-20T04:38:37.344Z,67.60
2023-05-20T04:41:05.498Z,67.40
2023-05-20T04:43:33.781Z,67.50
2023-05-20T04:46:06.002Z,67.60
2023-05-20T04:48:35.396Z,68.60
2023-05-20T04:51:03.212Z,67.90
2023-05-20T04:53:31.502Z,68.60
2023-05-20T04:55:59.376Z,68.10
2023-05-20T04:58:30.214Z,68.10
2023-05-20T05:00:58.243Z,68.40
2023-05-20T05:03:26.069Z,68.50
2023-05-20T05:05:58.689Z,68.50
2023-05-20T05:08:26.838Z,69.00
2023-05-20T05:10:54.773Z,69.00
2023-05-20T05:13:22.654Z,69.00
2023-05-20T05:15:58.635Z,69.00
2023-05-20T05:18:26.674Z,69.00
2023-05-20T05:21:01.995Z,69.30
2023-05-20T05:23:29.886Z,70.30
2023-05-20T05:25:58.070Z,70.00
2023-05-20T05:28:26.347Z,70.10
2023-05-20T05:30:56.327Z,70.20
2023-05-20T05:33:24.261Z,70.20
2023-05-20T05:35:52.576Z,69.90
2023-05-20T05:38:21.793Z,69.90
2023-05-20T05:40:49.844Z,70.10
2023-05-20T05:43:17.774Z,69.80
2023-05-20T05:45:45.973Z,70.10
2023-05-20T05:48:13.856Z,70.20
2023-05-20T05:50:45.993Z,70.30
2023-05-20T05:53:14.084Z,70.50
2023-05-20T05:55:43.352Z,70.20
2023-05-20T05:58:11.547Z,70.50
2023-05-20T06:00:39.494Z,70.40
2023-05-20T06:03:08.298Z,70.40
2023-05-20T06:05:36.400Z,70.40
2023-05-20T06:08:04.464Z,70.30
2023-05-20T06:10:33.451Z,70.00
2023-05-20T06:13:02.697Z,70.00
2023-05-20T06:15:30.583Z,70.00
2023-05-20T06:17:58.448Z,69.80
2023-05-20T06:20:26.377Z,69.50
2023-05-20T06:22:54.451Z,69.50
2023-05-20T06:25:23.092Z,69.40
2023-05-20T06:27:51.646Z,69.10
2023-05-20T06:30:21.120Z,68.90
2023-05-20T06:32:48.950Z,68.90
2023-05-20T06:35:17.367Z,68.40
2023-05-20T06:37:45.934Z,68.10
2023-05-20T06:40:14.200Z,67.80
2023-05-20T06:42:42.051Z,67.90
2023-05-20T06:45:10.697Z,67.90
2023-05-20T06:47:39.949Z,67.70
2023-05-20T06:50:08.623Z,67.10
2023-05-20T06:52:36.569Z,67.00
2023-05-20T06:55:04.648Z,66.70
2023-05-20T06:57:32.602Z,66.30
2023-05-20T07:00:00.750Z,66.40
2023-05-20T07:02:28.766Z,65.80
2023-05-20T07:04:58.261Z,65.70
2023-05-20T07:07:26.111Z,65.40
2023-05-20T07:09:55.807Z,64.80
2023-05-20T07:12:23.669Z,65.00
2023-05-20T07:14:51.990Z,64.50
2023-05-20T07:17:19.936Z,64.20
2023-05-20T07:19:47.961Z,64.10
2023-05-20T07:22:17.818Z,63.60
2023-05-20T07:24:47.608Z,63.40
2023-05-20T07:27:16.077Z,63.00
2023-05-20T07:29:43.963Z,62.20
2023-05-20T07:32:11.783Z,61.90
2023-05-20T07:34:39.630Z,62.00
2023-05-20T07:37:09.483Z,61.40
2023-05-20T07:39:38.782Z,60.90
2023-05-20T07:42:06.979Z,60.30
2023-05-20T07:44:34.911Z,60.60
2023-05-20T07:47:02.948Z,60.60
2023-05-20T07:49:31.255Z,60.70
2023-05-20T07:52:00.427Z,60.30
2023-05-20T07:54:30.018Z,60.30
2023-05-20T07:57:00.312Z,60.20
2023-05-20T07:59:28.219Z,59.60
2023-05-20T08:01:56.794Z,59.00
2023-05-20T08:04:24.706Z,58.70
2023-05-20T08:06:54.403Z,57.40
2023-05-20T08:09:23.037Z,56.90
2023-05-20T08:11:51.242Z,56.50
2023-05-20T08:14:20.476Z,55.50
2023-05-20T08:16:49.033Z,55.30
2023-05-20T08:19:17.100Z,54.90
2023-05-20T08:21:45.246Z,54.60
2023-05-20T08:24:13.349Z,53.80
2023-05-20T08:26:41.208Z,52.80
2023-05-20T08:29:09.519Z,52.10
2023-05-20T08:31:38.808Z,51.90
2023-05-20T08:34:06.867Z,51.30
2023-05-20T08:36:34.736Z,50.70
2023-05-20T08:39:02.849Z,50.10
2023-05-20T08:41:30.943Z,49.50
2023-05-20T08:44:01.838Z,50.00
2023-05-20T08:46:29.910Z,49.80
2023-05-20T08:48:59.424Z,50.10
2023-05-20T08:51:29.223Z,49.50
2023-05-20T08:53:57.165Z,49.30
2023-05-20T08:56:28.742Z,48.90
2023-05-20T08:58:58.723Z,48.50
2023-05-20T09:01:26.786Z,49.00
2023-05-20T09:03:54.802Z,48.60
2023-05-20T09:06:24.212Z,48.70
2023-05-20T09:08:52.683Z,48.20
2023-05-20T09:11:22.335Z,48.60
2023-05-20T09:13:51.594Z,48.10
2023-05-20T09:16:19.739Z,46.70
2023-05-20T09:18:47.859Z,46.70
2023-05-20T09:21:16.309Z,47.90
2023-05-20T09:23:50.818Z,47.70
2023-05-20T09:26:19.236Z,47.20
2023-05-20T09:28:47.729Z,47.10
2023-05-20T09:31:16.152Z,46.60
2023-05-20T09:33:45.077Z,46.50
2023-05-20T09:36:16.610Z,46.10
2023-05-20T09:38:47.860Z,45.90
2023-05-20T09:41:17.972Z,46.10
2023-05-20T09:43:46.950Z,45.90
2023-05-20T09:46:16.956Z,45.60
2023-05-20T09:48:46.583Z,46.40
2023-05-20T09:51:16.654Z,45.70
2023-05-20T09:53:45.036Z,45.80
2023-05-20T09:56:13.927Z,45.40
2023-05-20T09:58:46.078Z,46.40
2023-05-20T10:01:14.067Z,46.50
2023-05-20T10:03:44.103Z,46.50
2023-05-20T10:06:29.886Z,46.20
2023-05-20T10:09:10.607Z,45.60
2023-05-20T10:11:50.126Z,45.40
2023-05-20T10:14:33.093Z,45.50
2023-05-20T10:17:10.281Z,46.10
2023-05-20T10:19:38.625Z,45.70
2023-05-20T10:22:08.505Z,44.70
2023-05-20T10:24:38.047Z,44.80
2023-05-20T10:27:09.205Z,44.90
2023-05-20T10:29:52.278Z,45.10
2023-05-20T10:32:27.815Z,44.20
2023-05-20T10:35:01.630Z,44.90
2023-05-20T10:37:31.472Z,44.40
2023-05-20T10:40:08.395Z,44.60
2023-05-20T10:42:36.295Z,43.90
2023-05-20T10:45:07.230Z,43.70
2023-05-20T10:47:36.205Z,43.60
2023-05-20T10:50:05.846Z,43.80
2023-05-20T10:52:34.681Z,44.90
2023-05-20T10:55:03.454Z,43.70
2023-05-20T10:57:32.047Z,43.60
2023-05-20T11:00:01.086Z,43.50
2023-05-20T11:02:30.712Z,43.40
2023-05-20T11:04:59.104Z,43.50
2023-05-20T11:07:28.794Z,43.80
2023-05-20T11:09:56.762Z,43.90
2023-05-20T11:12:25.830Z,43.60
2023-05-20T11:14:54.204Z,43.70
2023-05-20T11:17:22.181Z,43.10
2023-05-20T11:19:52.058Z,42.80
2023-05-20T11:22:19.980Z,42.60
2023-05-20T11:24:47.986Z,42.80
2023-05-20T11:27:16.343Z,42.50
2023-05-20T11:29:45.113Z,42.90
2023-05-20T11:32:13.787Z,43.10
2023-05-20T11:34:42.705Z,43.20
2023-05-20T11:37:13.753Z,43.30
2023-05-20T11:39:41.630Z,43.00
2023-05-20T11:42:09.544Z,43.20
2023-05-20T11:44:38.326Z,44.10
2023-05-20T11:47:06.598Z,42.70
2023-05-20T11:49:40.862Z,42.20
2023-05-20T11:52:12.677Z,42.00
2023-05-20T11:54:40.508Z,42.20
2023-05-20T11:57:08.595Z,42.00
2023-05-20T11:59:36.831Z,42.10
2023-05-20T12:02:04.726Z,41.90
2023-05-20T12:04:32.676Z,42.10
2023-05-20T12:07:01.053Z,42.40
2023-05-20T12:09:30.390Z,42.10
2023-05-20T12:11:59.278Z,42.70
2023-05-20T12:14:27.170Z,42.70
2023-05-20T12:16:55.076Z,42.70
2023-05-20T12:19:22.944Z,42.30
2023-05-20T12:21:52.763Z,42.00
2023-05-20T12:24:21.249Z,41.70
2023-05-20T12:26:51.103Z,41.90
2023-05-20T12:29:18.964Z,41.70
2023-05-20T12:31:47.914Z,41.80
2023-05-20T12:34:16.305Z,42.00
2023-05-20T12:36:44.323Z,41.80
2023-05-20T12:39:13.732Z,41.70
2023-05-20T12:41:42.337Z,41.30
2023-05-20T12:44:11.717Z,41.00
2023-05-20T12:46:39.632Z,41.20
2023-05-20T12:49:07.778Z,41.20
2023-05-20T12:51:35.622Z,41.30
2023-05-20T12:54:03.485Z,41.70
2023-05-20T12:56:31.331Z,41.80
2023-05-20T12:58:59.196Z,41.40
2023-05-20T13:01:28.499Z,41.60
2023-05-20T13:03:56.469Z,41.70
2023-05-20T13:06:24.796Z,41.70
2023-05-20T13:08:52.634Z,41.80
2023-05-20T13:11:21.690Z,42.20
2023-05-20T13:13:50.221Z,41.90
2023-05-20T13:16:18.139Z,41.70
2023-05-20T13:18:49.058Z,41.90
2023-05-20T13:21:17.523Z,41.60
2023-05-20T13:23:45.505Z,40.60
2023-05-20T13:26:13.625Z,42.00
2023-05-20T13:28:41.790Z,42.00
2023-05-20T13:31:09.759Z,42.40
2023-05-20T13:33:37.664Z,42.30
2023-05-20T13:36:07.557Z,41.90
2023-05-20T13:38:37.318Z,41.60
2023-05-20T13:41:05.784Z,41.90
2023-05-20T13:43:33.758Z,41.40
2023-05-20T13:46:01.940Z,42.00
2023-05-20T13:48:30.098Z,42.00
2023-05-20T13:50:57.947Z,41.50
2023-05-20T13:53:27.198Z,41.30
2023-05-20T13:55:55.204Z,40.90
2023-05-20T13:58:23.048Z,40.30
2023-05-20T14:00:51.989Z,40.90
2023-05-20T14:03:19.981Z,40.80
2023-05-20T14:05:47.993Z,41.20
2023-05-20T14:08:16.234Z,41.20
2023-05-20T14:10:45.498Z,41.20
2023-05-20T14:13:13.473Z,41.00
2023-05-20T14:15:41.475Z,41.30
2023-05-20T14:18:09.419Z,41.20
2023-05-20T14:20:37.530Z,41.40
2023-05-20T14:23:05.634Z,41.30
2023-05-20T14:25:33.620Z,41.40
2023-05-20T14:28:02.868Z,40.80
2023-05-20T14:30:31.022Z,41.00
2023-05-20T14:32:59.149Z,41.20
2023-05-20T14:35:27.771Z,41.20
2023-05-20T14:37:56.041Z,40.50
2023-05-20T14:40:24.023Z,40.70
2023-05-20T14:42:51.953Z,40.70
2023-05-20T14:45:21.556Z,40.80
2023-05-20T14:47:50.037Z,41.00
2023-05-20T14:50:17.931Z,41.10
2023-05-20T14:52:46.450Z,41.20
2023-05-20T14:55:14.397Z,41.20
2023-05-20T14:57:42.230Z,41.00
2023-05-20T15:00:11.799Z,40.90
2023-05-20T15:02:41.009Z,40.40
2023-05-20T15:05:11.816Z,40.40
2023-05-20T15:07:39.848Z,40.20
2023-05-20T15:10:08.838Z,40.40
2023-05-20T15:12:36.632Z,40.40
2023-05-20T15:15:04.924Z,40.20
2023-05-20T15:17:32.775Z,40.30
2023-05-20T15:20:02.101Z,40.50
2023-05-20T15:22:30.395Z,40.60
2023-05-20T15:24:58.273Z,40.60
2023-05-20T15:27:26.145Z,40.90
2023-05-20T15:29:53.981Z,40.10
2023-05-20T15:32:21.945Z,40.00
2023-05-20T15:34:50.770Z,40.00
2023-05-20T15:37:20.035Z,39.80
2023-05-20T15:39:47.968Z,39.90
2023-05-20T15:42:18.218Z,40.10
2023-05-20T15:44:46.689Z,40.20
2023-05-20T15:47:14.562Z,40.60
2023-05-20T15:49:42.397Z,40.60
2023-05-20T15:52:10.516Z,40.90
2023-05-20T15:54:39.677Z,40.80
2023-05-20T15:57:07.696Z,40.90
2023-05-20T15:59:35.556Z,40.80
2023-05-20T16:02:03.421Z,40.90
2023-05-20T16:04:32.532Z,41.10
2023-05-20T16:07:00.719Z,41.20
2023-05-20T16:09:28.570Z,41.40
2023-05-20T16:11:57.718Z,41.50
2023-05-20T16:14:25.614Z,42.30
2023-05-20T16:16:53.430Z,41.70
2023-05-20T16:19:21.313Z,41.70
2023-05-20T16:21:49.877Z,41.70
2023-05-20T16:24:17.952Z,41.50
2023-05-20T16:26:46.377Z,41.40
2023-05-20T16:29:16.597Z,41.80
2023-05-20T16:31:46.475Z,41.60
2023-05-20T16:34:15.428Z,41.70
2023-05-20T16:36:45.381Z,42.10
2023-05-20T16:39:13.341Z,42.00
2023-05-20T16:41:41.268Z,42.00
2023-05-20T16:44:09.222Z,42.10
2023-05-20T16:46:38.644Z,42.10
2023-05-20T16:49:06.513Z,42.00
2023-05-20T16:51:34.367Z,42.10
2023-05-20T16:54:02.204Z,42.10
2023-05-20T16:56:30.058Z,42.20
2023-05-20T16:58:57.940Z,42.10
2023-05-20T17:01:26.017Z,42.00
2023-05-20T17:03:55.419Z,41.90
2023-05-20T17:06:23.879Z,41.70
2023-05-20T17:08:51.895Z,41.90
2023-05-20T17:11:19.734Z,42.00
2023-05-20T17:13:48.046Z,42.70
2023-05-20T17:16:16.489Z,41.80
2023-05-20T17:18:44.452Z,41.90
2023-05-20T17:21:15.799Z,42.70
2023-05-20T17:23:43.794Z,42.30
2023-05-20T17:26:11.796Z,42.30
2023-05-20T17:28:39.776Z,42.30
2023-05-20T17:31:08.930Z,42.20
2023-05-20T17:33:37.249Z,42.30
2023-05-20T17:36:05.657Z,42.40
2023-05-20T17:38:34.876Z,41.80
2023-05-20T17:41:02.744Z,42.50
2023-05-20T17:43:30.660Z,42.50
2023-05-20T17:45:58.536Z,42.40
2023-05-20T17:48:26.399Z,42.70
2023-05-20T17:50:54.224Z,42.70
2023-05-20T17:53:22.370Z,42.80
2023-05-20T17:55:54.932Z,42.70
2023-05-20T17:58:24.918Z,42.50
2023-05-20T18:00:52.976Z,42.60
2023-05-20T18:03:22.826Z,42.50
2023-05-20T18:05:51.891Z,42.60
2023-05-20T18:08:21.382Z,42.50
2023-05-20T18:10:50.043Z,42.70
2023-05-20T18:13:19.625Z,42.50
2023-05-20T18:15:48.756Z,42.70
2023-05-20T18:18:16.781Z,42.70
2023-05-20T18:20:44.655Z,42.80
2023-05-20T18:23:12.690Z,43.00
2023-05-20T18:25:42.372Z,42.80
2023-05-20T18:28:11.499Z,43.20
2023-05-20T18:30:40.881Z,43.20
2023-05-20T18:33:08.875Z,43.40
2023-05-20T18:35:36.770Z,43.50
2023-05-20T18:38:04.602Z,43.70
2023-05-20T18:40:32.522Z,43.60
2023-05-20T18:43:51.130Z,43.70
2023-05-20T18:50:26.716Z,42.40
2023-05-20T18:56:41.640Z,44.20
2023-05-20T18:59:09.532Z,44.20
2023-05-20T19:01:41.262Z,44.30
2023-05-20T19:04:09.120Z,45.10
2023-05-20T19:06:37.577Z,44.50
2023-05-20T19:09:05.795Z,44.60
2023-05-20T19:11:33.795Z,44.80
2023-05-20T19:14:02.194Z,45.00
2023-05-20T19:16:30.059Z,45.00
2023-05-20T19:18:59.309Z,45.30
2023-05-20T19:21:27.221Z,45.30
2023-05-20T19:23:55.062Z,45.30
2023-05-20T19:26:23.022Z,45.50
2023-05-20T19:28:51.158Z,45.60
2023-05-20T19:31:21.163Z,45.60
2023-05-20T19:33:49.977Z,45.90
2023-05-20T19:36:19.876Z,46.50
2023-05-20T19:38:48.426Z,45.90
2023-05-20T19:41:16.704Z,45.90
2023-05-20T19:43:44.532Z,45.80
2023-05-20T19:46:12.899Z,46.00
2023-05-20T19:48:41.064Z,44.80
2023-05-20T19:51:10.766Z,46.10
2023-05-20T19:53:40.014Z,46.20
2023-05-20T19:56:08.711Z,46.30
2023-05-20T19:58:36.807Z,46.40
2023-05-20T20:01:06.596Z,46.40
2023-05-20T20:03:34.986Z,46.50
2023-05-20T20:06:03.921Z,46.50
2023-05-20T20:08:31.994Z,46.60
2023-05-20T20:11:01.287Z,46.70
2023-05-20T20:13:30.452Z,46.80
2023-05-20T20:15:58.718Z,46.90
2023-05-20T20:18:26.988Z,47.10
2023-05-20T20:20:55.054Z,47.20
2023-05-20T20:23:22.869Z,47.20
2023-05-20T20:25:50.903Z,47.50
2023-05-20T20:28:20.210Z,47.40
2023-05-20T20:30:48.655Z,47.70
2023-05-20T20:33:16.660Z,47.80
2023-05-20T20:35:48.355Z,47.90
2023-05-20T20:38:18.041Z,47.90
2023-05-20T20:40:46.531Z,48.00
2023-05-20T20:43:20.630Z,48.00
2023-05-20T20:45:52.871Z,48.10
2023-05-20T20:48:26.525Z,48.10
2023-05-20T20:50:54.595Z,48.30
2023-05-20T20:53:22.522Z,48.40
2023-05-20T20:55:51.588Z,48.40
2023-05-20T20:58:19.515Z,48.40
2023-05-20T21:00:49.695Z,48.60
2023-05-20T21:03:23.777Z,48.40
2023-05-20T21:05:51.867Z,48.80
2023-05-20T21:08:22.125Z,48.80
2023-05-20T21:10:50.813Z,48.90
2023-05-20T21:13:18.650Z,48.90
2023-05-20T21:15:46.761Z,49.10
2023-05-20T21:18:21.534Z,49.10
2023-05-20T21:20:52.607Z,49.20
2023-05-20T21:23:21.024Z,49.40
2023-05-20T21:25:49.726Z,49.40
2023-05-20T21:28:18.157Z,49.50
2023-05-20T21:30:45.991Z,49.60
2023-05-20T21:33:13.911Z,49.70
2023-05-20T21:35:41.869Z,49.70
2023-05-20T21:38:13.364Z,49.40
2023-05-20T21:40:41.262Z,50.00
2023-05-20T21:43:09.103Z,49.90
2023-05-20T21:45:37.366Z,50.10
2023-05-20T21:48:06.226Z,50.20
2023-05-20T21:50:34.214Z,50.30
2023-05-20T21:53:02.172Z,50.20
2023-05-20T21:55:31.577Z,50.40
2023-05-20T21:57:59.406Z,50.60
2023-05-20T22:00:27.244Z,50.50
2023-05-20T22:02:55.772Z,50.60
2023-05-20T22:05:23.679Z,50.80
2023-05-20T22:07:52.903Z,50.80
2023-05-20T22:10:20.924Z,50.80
2023-05-20T22:12:51.175Z,50.90
2023-05-20T22:15:19.417Z,51.40
2023-05-20T22:17:48.703Z,51.20
2023-05-20T22:20:16.789Z,50.90
2023-05-20T22:22:44.623Z,51.20
2023-05-20T22:25:12.748Z,51.20
2023-05-20T22:27:42.769Z,51.10
2023-05-20T22:30:13.270Z,52.70
2023-05-20T22:32:41.277Z,52.90
2023-05-20T22:35:13.135Z,52.50
2023-05-20T22:37:41.755Z,52.50
2023-05-20T22:40:10.790Z,52.50
2023-05-20T22:42:38.659Z,52.70
2023-05-20T22:45:07.559Z,52.50
2023-05-20T22:47:36.929Z,52.70
2023-05-20T22:50:05.455Z,52.80
2023-05-20T22:52:33.554Z,53.10
2023-05-20T22:55:01.451Z,53.10
2023-05-20T22:57:29.558Z,53.20
2023-05-20T22:59:57.413Z,53.40
2023-05-20T23:02:25.275Z,53.50
2023-05-20T23:04:54.526Z,53.70
2023-05-20T23:07:22.537Z,53.90
2023-05-20T23:09:50.623Z,53.80
2023-05-20T23:12:18.628Z,53.80
2023-05-20T23:14:46.864Z,55.40
2023-05-20T23:17:14.717Z,55.10
2023-05-20T23:19:42.884Z,55.00
2023-05-20T23:22:12.069Z,54.80
2023-05-20T23:24:39.887Z,54.90
2023-05-20T23:27:07.846Z,54.90
2023-05-20T23:29:35.901Z,54.80
2023-05-20T23:32:03.778Z,54.90
2023-05-20T23:34:31.685Z,54.80
2023-05-20T23:36:59.785Z,55.00
2023-05-20T23:39:28.946Z,55.10
2023-05-20T23:41:56.784Z,55.30
2023-05-20T23:44:24.647Z,55.20
2023-05-20T23:46:53.685Z,55.30
2023-05-20T23:49:24.429Z,55.40
2023-05-20T23:51:52.878Z,55.40
2023-05-20T23:54:20.772Z,55.60
2023-05-20T23:56:50.836Z,55.70
2023-05-20T23:59:18.845Z,55.70
